createdAt,value
2022-08-22T00:04:37.024Z,98034.60
2022-08-22T00:11:37.901Z,98025.80
2022-08-22T00:19:04.862Z,98027.40
2022-08-22T00:26:24.825Z,98015.00
2022-08-22T00:33:31.070Z,98022.20
2022-08-22T00:40:43.193Z,98015.80
2022-08-22T00:48:01.225Z,98025.60
2022-08-22T00:55:07.021Z,98016.80
2022-08-22T01:02:15.954Z,98026.20
2022-08-22T01:09:42.926Z,98027.40
2022-08-22T01:16:52.190Z,98027.20
2022-08-22T01:24:10.014Z,98032.00
2022-08-22T01:31:36.407Z,98031.00
2022-08-22T01:38:39.689Z,98032.60
2022-08-22T01:45:54.811Z,98037.40
2022-08-22T01:53:15.237Z,98036.00
2022-08-22T02:00:34.883Z,98027.80
2022-08-22T02:07:38.811Z,98020.40
2022-08-22T02:15:13.889Z,98022.00
2022-08-22T02:22:15.360Z,98020.00
2022-08-22T02:29:36.316Z,98019.80
2022-08-22T02:36:38.218Z,98029.80
2022-08-22T02:43:56.325Z,98026.80
2022-08-22T02:51:37.843Z,98024.00
2022-08-22T02:59:07.222Z,98016.20
2022-08-22T03:06:25.558Z,98014.60
2022-08-22T03:13:33.436Z,98021.00
2022-08-22T03:20:45.174Z,98013.20
2022-08-22T03:28:00.791Z,98022.80
2022-08-22T03:35:16.341Z,98026.40
2022-08-22T03:42:33.348Z,98033.80
2022-08-22T03:49:33.338Z,98037.60
2022-08-22T03:56:37.397Z,98029.20
2022-08-22T04:03:44.974Z,98020.00
2022-08-22T04:11:05.046Z,98020.80
2022-08-22T04:18:08.433Z,98026.60
2022-08-22T04:25:14.471Z,98026.00
2022-08-22T04:32:26.329Z,98023.00
2022-08-22T04:39:29.053Z,98024.20
2022-08-22T04:46:44.419Z,98031.40
2022-08-22T04:53:49.464Z,98037.40
2022-08-22T05:00:52.551Z,98043.20
2022-08-22T05:08:01.559Z,98051.00
2022-08-22T05:15:10.799Z,98056.00
2022-08-22T05:22:13.596Z,98060.00
2022-08-22T05:29:10.207Z,98074.20
2022-08-22T05:36:22.562Z,98081.80
2022-08-22T05:43:11.359Z,98088.20
2022-08-22T05:49:56.987Z,98097.20
2022-08-22T05:57:08.031Z,98104.80
2022-08-22T06:04:08.927Z,98113.80
2022-08-22T06:11:06.280Z,98112.00
2022-08-22T06:18:15.141Z,98108.00
2022-08-22T06:24:59.417Z,98107.80
2022-08-22T06:32:01.146Z,98111.40
2022-08-22T06:38:58.017Z,98118.40
2022-08-22T06:46:10.318Z,98127.60
2022-08-22T06:53:13.094Z,98125.00
2022-08-22T07:00:15.521Z,98127.80
2022-08-22T07:07:24.837Z,98127.40
2022-08-22T07:14:15.633Z,98129.60
2022-08-22T07:21:18.617Z,98139.80
2022-08-22T07:28:51.407Z,98145.60
2022-08-22T07:36:10.406Z,98145.80
2022-08-22T07:43:37.714Z,98149.80
2022-08-22T07:50:43.608Z,98136.20
2022-08-22T07:57:21.331Z,98133.60
2022-08-22T08:04:24.488Z,98134.00
2022-08-22T08:11:27.872Z,98132.00
2022-08-22T08:18:36.908Z,98135.40
2022-08-22T08:25:17.986Z,98139.60
2022-08-22T08:32:09.534Z,98134.80
2022-08-22T08:39:04.917Z,98138.80
2022-08-22T08:46:26.305Z,98142.60
2022-08-22T09:01:04.468Z,98136.00
2022-08-22T09:08:32.674Z,98132.80
2022-08-22T09:15:42.980Z,98145.40
2022-08-22T09:23:10.841Z,98136.20
2022-08-22T09:30:29.895Z,98133.20
2022-08-22T09:37:55.442Z,98130.00
2022-08-22T09:40:16.617Z,98139.80
2022-08-22T09:45:13.711Z,98138.00
2022-08-22T09:52:34.027Z,98145.20
2022-08-22T09:59:54.801Z,98153.20
2022-08-22T10:06:59.138Z,98151.00
2022-08-22T10:14:01.594Z,98147.00
2022-08-22T10:20:41.181Z,98154.60
2022-08-22T10:27:47.906Z,98148.20
2022-08-22T10:35:00.009Z,98155.80
2022-08-22T10:42:20.028Z,98157.00
2022-08-22T10:49:28.962Z,98162.60
2022-08-22T10:56:37.239Z,98164.40
2022-08-22T11:04:20.402Z,98159.20
2022-08-22T11:11:33.063Z,98159.40
2022-08-22T11:19:01.898Z,98158.20
2022-08-22T11:26:33.519Z,98158.60
2022-08-22T11:33:55.392Z,98161.80
2022-08-22T11:41:07.136Z,98158.20
2022-08-22T11:48:10.994Z,98161.80
2022-08-22T11:55:16.738Z,98160.80
2022-08-22T12:02:29.793Z,98159.00
2022-08-22T12:09:38.001Z,98152.20
2022-08-22T12:16:45.086Z,98146.60
2022-08-22T12:24:23.752Z,98145.20
2022-08-22T12:31:28.198Z,98141.80
2022-08-22T12:38:41.430Z,98137.00
2022-08-22T12:45:45.179Z,98130.80
2022-08-22T12:52:49.893Z,98131.20
2022-08-22T13:00:11.649Z,98125.40
2022-08-22T13:06:52.847Z,98140.00
2022-08-22T13:14:04.622Z,98134.60
2022-08-22T13:21:05.501Z,98132.40
2022-08-22T13:28:14.632Z,98140.20
2022-08-22T13:35:32.879Z,98142.80
2022-08-22T13:42:57.009Z,98143.00
2022-08-22T13:50:10.302Z,98153.40
2022-08-22T13:56:57.892Z,98145.60
2022-08-22T14:03:52.072Z,98146.80
2022-08-22T14:10:55.336Z,98138.20
2022-08-22T14:17:58.301Z,98131.00
2022-08-22T14:25:23.377Z,98122.40
2022-08-22T14:32:22.669Z,98130.20
2022-08-22T14:39:49.992Z,98133.00
2022-08-22T14:47:04.416Z,98141.60
2022-08-22T14:54:21.953Z,98135.00
2022-08-22T15:01:25.312Z,98127.00
2022-08-22T15:08:28.099Z,98131.20
2022-08-22T15:15:41.241Z,98130.60
2022-08-22T15:22:52.672Z,98126.00
2022-08-22T15:29:45.891Z,98133.00
2022-08-22T15:37:09.868Z,98143.80
2022-08-22T15:44:13.883Z,98141.20
2022-08-22T15:51:36.347Z,98130.80
2022-08-22T15:58:48.130Z,98128.80
2022-08-22T16:06:07.858Z,98130.40
2022-08-22T16:13:11.713Z,98121.20
2022-08-22T16:19:53.143Z,98134.00
2022-08-22T16:27:11.102Z,98146.80
2022-08-22T16:34:15.433Z,98151.40
2022-08-22T16:41:21.367Z,98160.80
2022-08-22T16:48:31.763Z,98153.60
2022-08-22T16:55:43.677Z,98125.60
2022-08-22T17:02:34.861Z,98131.60
2022-08-22T17:09:16.642Z,98147.00
2022-08-22T17:16:32.836Z,98147.20
2022-08-22T17:23:34.233Z,98126.00
2022-08-22T17:30:18.997Z,98141.00
2022-08-22T17:37:13.519Z,98133.60
2022-08-22T17:44:11.151Z,98139.80
2022-08-22T17:51:40.393Z,98148.60
2022-08-22T17:59:01.218Z,98146.40
2022-08-22T18:06:34.490Z,98144.40
2022-08-22T18:13:43.683Z,98160.40
2022-08-22T18:21:01.551Z,98183.80
2022-08-22T18:28:32.520Z,98190.40
2022-08-22T18:35:43.992Z,98189.60
2022-08-22T18:42:58.943Z,98180.20
2022-08-22T18:50:20.385Z,98172.20
2022-08-22T18:57:45.597Z,98173.40
2022-08-22T19:04:38.409Z,98185.60
2022-08-22T19:11:36.866Z,98195.20
2022-08-22T19:18:58.196Z,98180.80
2022-08-22T19:26:07.207Z,98169.60
2022-08-22T19:33:16.101Z,98155.00
2022-08-22T19:40:22.020Z,98161.40
2022-08-22T19:47:27.937Z,98162.00
2022-08-22T19:54:16.672Z,98151.80
2022-08-22T20:01:46.443Z,98150.00
2022-08-22T20:09:00.373Z,98139.60
2022-08-22T20:16:12.149Z,98142.60
2022-08-22T20:23:22.666Z,98137.60
2022-08-22T20:29:58.456Z,98132.00
2022-08-22T20:37:25.329Z,98123.40
2022-08-22T20:44:22.673Z,98116.80
2022-08-22T20:51:28.898Z,98114.60
2022-08-22T20:58:34.809Z,98108.00
2022-08-22T21:05:43.683Z,98109.20
2022-08-22T21:12:40.510Z,98111.00
2022-08-22T21:19:46.828Z,98115.80
2022-08-22T21:26:53.593Z,98123.60
2022-08-22T21:33:59.218Z,98135.40
2022-08-22T21:41:07.015Z,98133.80
2022-08-22T21:48:28.507Z,98134.60
2022-08-22T21:55:45.335Z,98169.20
2022-08-22T22:02:49.556Z,98154.00
2022-08-22T22:09:41.422Z,98144.80
2022-08-22T22:16:48.526Z,98193.00
2022-08-22T22:23:34.652Z,98158.40
2022-08-22T22:30:28.603Z,98136.80
2022-08-22T22:37:22.938Z,98118.40
2022-08-22T22:44:08.980Z,98120.60
2022-08-22T22:50:54.256Z,98134.20
2022-08-22T22:57:42.443Z,98122.00
2022-08-22T23:04:46.170Z,98136.20
2022-08-22T23:11:22.609Z,98128.60
2022-08-22T23:17:57.024Z,98107.00
2022-08-22T23:24:59.936Z,98099.80
2022-08-22T23:32:08.973Z,98092.40
2022-08-22T23:39:01.030Z,98107.00
2022-08-22T23:45:56.294Z,98117.20
2022-08-22T23:52:59.088Z,98118.00
